createdAt,value
2019-01-14T00:00:38.674Z,98145.97
2019-01-14T00:03:08.355Z,98170.53
2019-01-14T00:05:37.880Z,98162.32
2019-01-14T00:08:07.834Z,98175.69
2019-01-14T00:10:37.358Z,98195.50
2019-01-14T00:13:06.958Z,98180.87
2019-01-14T00:15:36.528Z,98189.09
2019-01-14T00:18:06.225Z,98198.62
2019-01-14T00:20:35.747Z,98206.42
2019-01-14T00:23:05.480Z,98219.81
2019-01-14T00:25:34.998Z,98244.03
2019-01-14T00:28:04.516Z,98253.98
2019-01-14T00:30:34.094Z,98215.28
2019-01-14T00:33:03.611Z,98240.00
2019-01-14T00:35:33.126Z,98256.50
2019-01-14T00:38:02.667Z,98265.63
2019-01-14T00:40:32.209Z,98276.91
2019-01-14T00:43:02.229Z,98259.25
2019-01-14T00:45:31.883Z,98260.98
2019-01-14T00:48:01.523Z,98270.50
2019-01-14T00:50:31.036Z,98268.35
2019-01-14T00:53:00.791Z,98276.92
2019-01-14T00:55:30.480Z,98287.69
2019-01-14T00:58:00.017Z,98304.05
2019-01-14T01:00:29.934Z,98294.13
2019-01-14T01:02:59.488Z,98308.74
2019-01-14T01:05:29.070Z,98305.28
2019-01-14T01:07:58.611Z,98304.83
2019-01-14T01:10:28.234Z,98325.05
2019-01-14T01:12:57.782Z,98328.48
2019-01-14T01:15:27.391Z,98329.78
2019-01-14T01:17:56.911Z,98334.09
2019-01-14T01:20:26.825Z,98354.34
2019-01-14T01:22:56.402Z,98370.74
2019-01-14T01:25:25.966Z,98340.17
2019-01-14T01:27:55.479Z,98353.55
2019-01-14T01:30:25.492Z,98359.64
2019-01-14T01:32:55.026Z,98375.59
2019-01-14T01:35:24.533Z,98374.30
2019-01-14T01:37:54.076Z,98367.41
2019-01-14T01:40:23.594Z,98384.64
2019-01-14T01:42:53.260Z,98379.86
2019-01-14T01:45:22.782Z,98397.53
2019-01-14T01:47:52.308Z,98392.79
2019-01-14T01:50:21.821Z,98408.77
2019-01-14T01:52:51.786Z,98401.88
2019-01-14T01:55:21.333Z,98432.48
2019-01-14T01:57:51.183Z,98427.73
2019-01-14T02:00:21.353Z,98444.98
2019-01-14T02:02:51.322Z,98444.12
2019-01-14T02:05:22.377Z,98472.56
2019-01-14T02:07:51.964Z,98462.22
2019-01-14T02:10:22.343Z,98470.84
2019-01-14T02:12:51.811Z,98471.27
2019-01-14T02:15:22.289Z,98488.51
2019-01-14T02:17:51.948Z,98493.68
2019-01-14T02:20:21.838Z,98498.85
2019-01-14T02:22:51.765Z,98501.44
2019-01-14T02:25:21.349Z,98469.12
2019-01-14T02:27:50.877Z,98510.05
2019-01-14T02:30:21.952Z,98514.80
2019-01-14T02:32:51.695Z,98517.81
2019-01-14T02:35:21.308Z,98514.36
2019-01-14T02:37:50.833Z,98516.55
2019-01-14T02:40:21.637Z,98535.51
2019-01-14T02:42:51.266Z,98528.18
2019-01-14T02:45:20.852Z,98522.58
2019-01-14T02:47:50.455Z,98539.80
2019-01-14T02:50:19.958Z,98554.03
2019-01-14T02:52:49.559Z,98563.08
2019-01-14T02:55:19.110Z,98571.25
2019-01-14T02:57:48.737Z,98572.98
2019-01-14T03:00:23.129Z,98585.48
2019-01-14T03:02:52.741Z,98584.61
2019-01-14T03:05:22.432Z,98604.87
2019-01-14T03:07:52.408Z,98612.63
2019-01-14T03:10:22.004Z,98615.63
2019-01-14T03:12:51.566Z,98628.56
2019-01-14T03:15:21.492Z,98631.58
2019-01-14T03:17:51.100Z,98630.72
2019-01-14T03:20:20.648Z,98653.56
2019-01-14T03:22:50.521Z,98675.97
2019-01-14T03:25:20.315Z,98656.58
2019-01-14T03:27:49.875Z,98679.42
2019-01-14T03:30:20.231Z,98671.22
2019-01-14T03:32:49.860Z,98683.73
2019-01-14T03:35:19.495Z,98693.64
2019-01-14T03:37:49.143Z,98691.91
2019-01-14T03:40:19.409Z,98690.62
2019-01-14T03:42:49.004Z,98697.06
2019-01-14T03:45:18.863Z,98714.73
2019-01-14T03:47:48.391Z,98721.20
2019-01-14T03:50:21.193Z,98709.13
2019-01-14T03:52:51.432Z,98728.53
2019-01-14T03:55:21.103Z,98749.22
2019-01-14T03:57:52.874Z,98739.30
2019-01-14T04:00:22.749Z,98744.02
2019-01-14T04:02:52.346Z,98730.66
2019-01-14T04:05:21.870Z,98741.42
2019-01-14T04:07:51.833Z,98765.95
2019-01-14T04:10:21.436Z,98754.31
2019-01-14T04:12:50.956Z,98769.82
2019-01-14T04:15:20.837Z,98765.50
2019-01-14T04:17:50.431Z,98774.52
2019-01-14T04:20:20.592Z,98781.42
2019-01-14T04:22:50.710Z,98782.71
2019-01-14T04:25:20.308Z,98786.98
2019-01-14T04:27:49.840Z,98794.71
2019-01-14T04:30:22.899Z,98786.48
2019-01-14T04:32:52.691Z,98790.78
2019-01-14T04:35:22.524Z,98804.08
2019-01-14T04:37:52.152Z,98787.27
2019-01-14T04:40:21.941Z,98796.17
2019-01-14T04:42:51.539Z,98808.54
2019-01-14T04:45:21.232Z,98839.83
2019-01-14T04:47:50.771Z,98858.63
2019-01-14T04:50:22.022Z,98858.48
2019-01-14T04:52:51.644Z,98868.72
2019-01-14T04:55:21.345Z,98851.88
2019-01-14T04:57:50.934Z,98867.72
2019-01-14T05:00:25.496Z,98879.71
2019-01-14T05:02:55.092Z,98883.52
2019-01-14T05:05:24.754Z,98868.86
2019-01-14T05:07:54.274Z,98875.20
2019-01-14T05:10:23.971Z,98888.38
2019-01-14T05:12:53.498Z,98894.38
2019-01-14T05:15:23.074Z,98899.11
2019-01-14T05:17:52.602Z,98892.74
2019-01-14T05:20:27.083Z,98888.95
2019-01-14T05:22:56.981Z,98886.02
2019-01-14T05:25:26.710Z,98899.42
2019-01-14T05:27:56.234Z,98890.05
2019-01-14T05:30:25.949Z,98893.58
2019-01-14T05:32:55.499Z,98888.52
2019-01-14T05:35:25.024Z,98888.97
2019-01-14T05:37:54.707Z,98903.17
2019-01-14T05:40:26.355Z,98880.84
2019-01-14T05:42:56.010Z,98884.30
2019-01-14T05:45:25.565Z,98886.95
2019-01-14T05:47:55.219Z,98904.59
2019-01-14T05:50:24.756Z,98901.19
2019-01-14T05:52:54.430Z,98886.55
2019-01-14T05:55:23.953Z,98903.72
2019-01-14T05:57:53.547Z,98899.81
2019-01-14T06:00:31.688Z,98902.75
2019-01-14T06:03:01.214Z,98902.29
2019-01-14T06:05:30.978Z,98902.71
2019-01-14T06:08:00.964Z,98908.69
2019-01-14T06:10:30.491Z,98902.65
2019-01-14T06:13:00.095Z,98918.56
2019-01-14T06:15:30.256Z,98922.91
2019-01-14T06:17:59.779Z,98919.37
2019-01-14T06:20:30.840Z,98917.09
2019-01-14T06:23:00.425Z,98915.27
2019-01-14T06:25:29.949Z,98927.16
2019-01-14T06:27:59.468Z,98924.00
2019-01-14T06:30:31.275Z,98937.25
2019-01-14T06:33:00.861Z,98945.02
2019-01-14T06:35:30.731Z,98948.50
2019-01-14T06:38:00.347Z,98946.89
2019-01-14T06:40:29.941Z,98953.80
2019-01-14T06:42:59.555Z,98966.69
2019-01-14T06:45:29.231Z,98957.69
2019-01-14T06:47:58.767Z,98982.99
2019-01-14T06:50:28.293Z,98981.28
2019-01-14T06:52:59.809Z,98992.94
2019-01-14T06:55:29.330Z,98999.40
2019-01-14T06:57:59.111Z,99027.68
2019-01-14T07:00:29.503Z,99035.77
2019-01-14T07:02:59.026Z,99030.91
2019-01-14T07:05:28.688Z,99056.51
2019-01-14T07:07:59.775Z,99063.15
2019-01-14T07:10:30.546Z,99065.46
2019-01-14T07:13:00.306Z,99067.25
2019-01-14T07:15:29.991Z,99084.57
2019-01-14T07:17:59.524Z,99089.88
2019-01-14T07:20:29.146Z,99089.35
2019-01-14T07:22:58.667Z,99099.16
2019-01-14T07:25:28.204Z,99112.45
2019-01-14T07:27:57.716Z,99107.81
2019-01-14T07:30:27.344Z,99109.28
2019-01-14T07:32:56.883Z,99110.31
2019-01-14T07:35:26.411Z,99105.01
2019-01-14T07:37:55.963Z,99120.23
2019-01-14T07:40:25.599Z,99125.56
2019-01-14T07:42:55.088Z,99121.44
2019-01-14T07:45:24.698Z,99125.81
2019-01-14T07:47:54.220Z,99140.46
2019-01-14T07:50:23.809Z,99143.97
2019-01-14T07:52:53.660Z,99131.63
2019-01-14T07:55:23.198Z,99141.69
2019-01-14T07:57:52.730Z,99148.73
2019-01-14T08:00:25.320Z,99157.53
2019-01-14T08:02:55.128Z,99155.95
2019-01-14T08:05:24.645Z,99163.38
2019-01-14T08:07:54.358Z,99164.73
2019-01-14T08:10:24.018Z,99163.89
2019-01-14T08:12:53.535Z,99176.28
2019-01-14T08:15:23.548Z,99190.85
2019-01-14T08:17:53.373Z,99188.72
2019-01-14T08:20:22.869Z,99191.33
2019-01-14T08:22:52.576Z,99190.55
2019-01-14T08:25:22.098Z,99197.05
2019-01-14T08:27:51.648Z,99197.55
2019-01-14T08:30:22.540Z,99199.38
2019-01-14T08:32:52.330Z,99206.31
2019-01-14T08:35:21.989Z,99211.98
2019-01-14T08:37:51.534Z,99207.21
2019-01-14T08:40:21.205Z,99216.19
2019-01-14T08:42:50.726Z,99219.27
2019-01-14T08:45:20.420Z,99224.54
2019-01-14T08:47:49.940Z,99214.90
2019-01-14T08:50:20.195Z,99231.53
2019-01-14T08:52:49.746Z,99219.80
2019-01-14T08:55:19.336Z,99215.23
2019-01-14T08:57:54.500Z,99226.03
2019-01-14T09:00:21.608Z,99226.38
2019-01-14T09:02:51.130Z,99238.57
2019-01-14T09:05:20.825Z,99233.22
2019-01-14T09:07:50.386Z,99234.36
2019-01-14T09:10:23.415Z,99248.23
2019-01-14T09:12:53.176Z,99250.34
2019-01-14T09:15:22.789Z,99253.80
2019-01-14T09:17:52.315Z,99255.19
2019-01-14T09:20:23.143Z,99247.37
2019-01-14T09:22:52.848Z,99250.52
2019-01-14T09:25:22.376Z,99268.09
2019-01-14T09:27:51.962Z,99252.27
2019-01-14T09:30:25.817Z,99242.40
2019-01-14T09:32:55.566Z,99261.89
2019-01-14T09:35:25.094Z,99275.77
2019-01-14T09:37:54.717Z,99271.00
2019-01-14T09:40:25.143Z,99279.64
2019-01-14T09:42:54.665Z,99270.53
2019-01-14T09:45:24.351Z,99247.53
2019-01-14T09:47:53.951Z,99274.41
2019-01-14T09:50:23.547Z,99279.60
2019-01-14T09:52:53.515Z,99277.00
2019-01-14T09:55:23.031Z,99282.67
2019-01-14T09:57:52.623Z,99278.34
2019-01-14T10:00:22.530Z,99278.77
2019-01-14T10:02:55.592Z,99289.62
2019-01-14T10:05:23.399Z,99277.05
2019-01-14T10:07:53.075Z,99271.42
2019-01-14T10:10:22.769Z,99280.50
2019-01-14T10:12:52.296Z,99263.20
2019-01-14T10:15:24.045Z,99279.20
2019-01-14T10:17:55.278Z,99284.80
2019-01-14T10:20:24.800Z,99274.44
2019-01-14T10:22:54.462Z,99272.70
2019-01-14T10:25:24.855Z,99269.23
2019-01-14T10:27:54.547Z,99265.34
2019-01-14T10:30:24.159Z,99288.75
2019-01-14T10:32:53.749Z,99274.47
2019-01-14T10:35:23.277Z,99276.63
2019-01-14T10:37:53.005Z,99271.02
2019-01-14T10:40:22.533Z,99268.84
2019-01-14T10:42:52.058Z,99283.00
2019-01-14T10:45:23.698Z,99274.67
2019-01-14T10:47:53.286Z,99275.89
2019-01-14T10:50:22.882Z,99252.14
2019-01-14T10:52:52.819Z,99266.41
2019-01-14T10:55:22.325Z,99268.95
2019-01-14T10:57:52.193Z,99275.80
2019-01-14T11:00:25.120Z,99283.91
2019-01-14T11:02:55.080Z,99287.59
2019-01-14T11:05:28.249Z,99286.59
2019-01-14T11:07:58.025Z,99264.94
2019-01-14T11:10:27.616Z,99285.46
2019-01-14T11:12:57.482Z,99299.16
2019-01-14T11:15:27.557Z,99300.80
2019-01-14T11:17:57.095Z,99301.50
2019-01-14T11:20:30.096Z,99300.11
2019-01-14T11:23:00.706Z,99324.30
2019-01-14T11:25:30.400Z,99311.41
2019-01-14T11:28:00.090Z,99320.38
2019-01-14T11:30:31.163Z,99325.46
2019-01-14T11:33:00.686Z,99324.14
2019-01-14T11:35:30.556Z,99323.63
2019-01-14T11:38:00.384Z,99321.34
2019-01-14T11:40:34.190Z,99332.82
2019-01-14T11:43:03.785Z,99343.91
2019-01-14T11:45:33.331Z,99328.84
2019-01-14T11:48:03.299Z,99343.16
2019-01-14T11:50:32.836Z,99342.73
2019-01-14T11:53:02.853Z,99332.33
2019-01-14T11:55:32.416Z,99350.30
2019-01-14T11:58:01.942Z,99357.56
2019-01-14T12:00:36.559Z,99359.20
2019-01-14T12:03:03.012Z,99369.44
2019-01-14T12:05:32.519Z,99375.34
2019-01-14T12:08:02.133Z,99365.81
2019-01-14T12:10:31.795Z,99375.27
2019-01-14T12:13:01.268Z,99378.27
2019-01-14T12:15:31.464Z,99378.27
2019-01-14T12:18:01.016Z,99367.52
2019-01-14T12:20:30.618Z,99373.86
2019-01-14T12:23:00.419Z,99374.59
2019-01-14T12:25:29.942Z,99371.09
2019-01-14T12:27:59.469Z,99373.67
2019-01-14T12:30:35.563Z,99378.49
2019-01-14T12:33:05.692Z,99367.82
2019-01-14T12:35:35.357Z,99378.49
2019-01-14T12:38:05.431Z,99377.12
2019-01-14T12:40:34.963Z,99387.75
2019-01-14T12:43:04.726Z,99404.90
2019-01-14T12:45:34.434Z,99397.94
2019-01-14T12:48:04.269Z,99402.62
2019-01-14T12:50:33.958Z,99403.04
2019-01-14T12:53:03.689Z,99403.91
2019-01-14T12:55:33.234Z,99408.63
2019-01-14T12:58:02.756Z,99412.86
2019-01-14T13:00:32.381Z,99412.44
2019-01-14T13:03:01.978Z,99415.02
2019-01-14T13:05:32.337Z,99409.85
2019-01-14T13:08:02.045Z,99419.34
2019-01-14T13:10:31.576Z,99432.63
2019-01-14T13:13:01.111Z,99419.79
2019-01-14T13:15:31.097Z,99443.20
2019-01-14T13:18:05.247Z,99414.59
2019-01-14T13:20:31.923Z,99432.87
2019-01-14T13:23:01.651Z,99461.45
2019-01-14T13:25:31.263Z,99460.67
2019-01-14T13:28:00.791Z,99452.11
2019-01-14T13:30:30.879Z,99456.80
2019-01-14T13:33:00.913Z,99478.19
2019-01-14T13:35:30.508Z,99481.67
2019-01-14T13:38:00.196Z,99483.92
2019-01-14T13:40:29.835Z,99483.55
2019-01-14T13:42:59.339Z,99498.07
2019-01-14T13:45:28.886Z,99515.61
2019-01-14T13:47:58.414Z,99511.52
2019-01-14T13:50:28.446Z,99526.86
2019-01-14T13:52:57.997Z,99542.23
2019-01-14T13:55:27.608Z,99547.97
2019-01-14T13:57:59.962Z,99536.30
2019-01-14T14:00:28.846Z,99540.57
2019-01-14T14:02:58.368Z,99536.34
2019-01-14T14:05:27.969Z,99550.81
2019-01-14T14:07:57.514Z,99564.53
2019-01-14T14:10:29.343Z,99566.28
2019-01-14T14:12:59.086Z,99572.72
2019-01-14T14:15:29.977Z,99581.24
2019-01-14T14:18:00.040Z,99616.77
2019-01-14T14:20:29.720Z,99593.41
2019-01-14T14:22:59.252Z,99621.15
2019-01-14T14:25:28.916Z,99610.67
2019-01-14T14:27:58.440Z,99628.10
2019-01-14T14:30:35.938Z,99642.91
2019-01-14T14:33:05.631Z,99636.28
2019-01-14T14:35:35.146Z,99648.42
2019-01-14T14:38:05.433Z,99653.42
2019-01-14T14:40:35.021Z,99646.89
2019-01-14T14:43:06.501Z,99656.68
2019-01-14T14:45:36.027Z,99648.81
2019-01-14T14:48:05.994Z,99663.64
2019-01-14T14:50:35.523Z,99667.45
2019-01-14T14:53:05.507Z,99666.44
2019-01-14T14:55:35.035Z,99676.22
2019-01-14T14:58:04.799Z,99680.08
2019-01-14T15:00:34.431Z,99683.47
2019-01-14T15:03:04.323Z,99680.02
2019-01-14T15:05:33.843Z,99697.56
2019-01-14T15:08:03.386Z,99707.75
2019-01-14T15:10:32.914Z,99697.41
2019-01-14T15:13:02.439Z,99708.94
2019-01-14T15:15:32.214Z,99711.77
2019-01-14T15:18:01.734Z,99718.09
2019-01-14T15:20:31.258Z,99737.33
2019-01-14T15:23:01.032Z,99726.01
2019-01-14T15:25:30.565Z,99739.28
2019-01-14T15:28:00.085Z,99737.35
2019-01-14T15:30:30.439Z,99746.30
2019-01-14T15:33:00.042Z,99749.64
2019-01-14T15:35:29.642Z,99756.79
2019-01-14T15:37:59.326Z,99757.61
2019-01-14T15:40:29.213Z,99763.63
2019-01-14T15:42:58.734Z,99763.58
2019-01-14T15:45:28.433Z,99775.55
2019-01-14T15:47:58.024Z,99789.10
2019-01-14T15:50:27.876Z,99786.06
2019-01-14T15:52:57.442Z,99788.99
2019-01-14T15:55:26.963Z,99799.62
2019-01-14T15:57:56.483Z,99791.09
2019-01-14T16:00:26.379Z,99812.08
2019-01-14T16:02:56.149Z,99805.07
2019-01-14T16:05:25.670Z,99820.88
2019-01-14T16:07:55.215Z,99818.61
2019-01-14T16:10:25.378Z,99829.12
2019-01-14T16:12:54.968Z,99842.60
2019-01-14T16:15:24.801Z,99837.30
2019-01-14T16:17:54.328Z,99841.50
2019-01-14T16:20:25.455Z,99842.67
2019-01-14T16:22:55.081Z,99838.67
2019-01-14T16:25:24.604Z,99850.64
2019-01-14T16:27:54.128Z,99851.28
2019-01-14T16:30:25.379Z,99860.62
2019-01-14T16:32:55.047Z,99869.97
2019-01-14T16:35:24.636Z,99865.97
2019-01-14T16:37:54.348Z,99879.16
2019-01-14T16:40:23.989Z,99880.32
2019-01-14T16:42:53.509Z,99883.23
2019-01-14T16:45:24.844Z,99885.74
2019-01-14T16:47:54.367Z,99883.99
2019-01-14T16:50:23.892Z,99881.70
2019-01-14T16:52:53.504Z,99883.31
2019-01-14T16:55:34.023Z,99887.04
2019-01-14T16:58:03.578Z,99883.53
2019-01-14T17:00:33.112Z,99890.77
2019-01-14T17:03:02.669Z,99879.91
2019-01-14T17:05:32.460Z,99884.22
2019-01-14T17:08:01.992Z,99879.50
2019-01-14T17:10:31.513Z,99892.86
2019-01-14T17:13:01.149Z,99892.52
2019-01-14T17:15:30.679Z,99894.27
2019-01-14T17:18:00.201Z,99892.11
2019-01-14T17:20:29.910Z,99901.86
2019-01-14T17:22:59.432Z,99909.34
2019-01-14T17:25:28.955Z,99909.09
2019-01-14T17:27:58.624Z,99907.74
2019-01-14T17:30:28.161Z,99915.03
2019-01-14T17:32:57.688Z,99921.33
2019-01-14T17:35:27.345Z,99915.31
2019-01-14T17:37:56.883Z,99928.56
2019-01-14T17:40:32.546Z,99935.63
2019-01-14T17:42:57.720Z,99938.47
2019-01-14T17:45:27.235Z,99948.67
2019-01-14T17:47:56.763Z,99949.89
2019-01-14T17:50:26.341Z,99954.69
2019-01-14T17:52:55.930Z,99954.22
2019-01-14T17:55:25.480Z,99955.44
2019-01-14T17:57:55.048Z,99971.17
2019-01-14T18:00:25.763Z,99964.75
2019-01-14T18:02:55.292Z,99972.52
2019-01-14T18:05:25.127Z,99979.34
2019-01-14T18:07:54.628Z,99972.86
2019-01-14T18:10:24.146Z,99988.73
2019-01-14T18:12:54.041Z,99981.44
2019-01-14T18:15:23.574Z,99989.20
2019-01-14T18:17:53.105Z,99976.84
2019-01-14T18:20:22.739Z,99986.64
2019-01-14T18:22:52.269Z,99975.91
2019-01-14T18:25:21.792Z,99995.15
2019-01-14T18:27:51.412Z,99975.02
2019-01-14T18:30:21.514Z,99978.47
2019-01-14T18:32:51.112Z,99982.25
2019-01-14T18:35:20.776Z,99998.47
2019-01-14T18:37:50.364Z,99998.43
2019-01-14T18:40:20.033Z,99997.17
2019-01-14T18:42:49.716Z,100012.64
2019-01-14T18:45:19.688Z,100012.23
2019-01-14T18:47:49.329Z,100010.02
2019-01-14T18:50:21.657Z,100019.70
2019-01-14T18:52:51.490Z,100023.42
2019-01-14T18:55:21.028Z,100028.95
2019-01-14T18:57:50.653Z,100027.20
2019-01-14T19:00:22.691Z,100036.66
2019-01-14T19:02:52.402Z,100038.00
2019-01-14T19:05:22.157Z,100029.09
2019-01-14T19:07:51.755Z,100043.75
2019-01-14T19:10:21.357Z,100056.28
2019-01-14T19:12:50.986Z,100047.63
2019-01-14T19:15:20.789Z,100051.05
2019-01-14T19:17:50.462Z,100054.85
2019-01-14T19:20:23.724Z,100055.72
2019-01-14T19:22:53.254Z,100053.45
2019-01-14T19:25:22.853Z,100061.89
2019-01-14T19:27:52.420Z,100063.40
2019-01-14T19:30:22.901Z,100071.43
2019-01-14T19:32:52.494Z,100068.67
2019-01-14T19:35:22.119Z,100075.77
2019-01-14T19:37:51.643Z,100067.43
2019-01-14T19:40:21.576Z,100079.94
2019-01-14T19:42:51.200Z,100078.25
2019-01-14T19:45:21.643Z,100076.52
2019-01-14T19:47:51.411Z,100078.59
2019-01-14T19:50:22.895Z,100078.40
2019-01-14T19:52:52.723Z,100085.75
2019-01-14T19:55:22.288Z,100076.78
2019-01-14T19:57:52.115Z,100092.38
2019-01-14T20:00:25.752Z,100096.30
2019-01-14T20:02:55.486Z,100086.45
2019-01-14T20:05:25.306Z,100097.20
2019-01-14T20:07:55.527Z,100099.97
2019-01-14T20:10:25.058Z,100108.22
2019-01-14T20:12:54.966Z,100121.53
2019-01-14T20:15:24.497Z,100117.27
2019-01-14T20:17:54.036Z,100120.07
2019-01-14T20:20:23.677Z,100115.60
2019-01-14T20:22:53.199Z,100131.75
2019-01-14T20:25:22.807Z,100124.73
2019-01-14T20:27:52.508Z,100129.19
2019-01-14T20:30:23.184Z,100127.09
2019-01-14T20:32:52.795Z,100138.25
2019-01-14T20:35:22.425Z,100138.81
2019-01-14T20:37:51.955Z,100135.34
2019-01-14T20:40:21.556Z,100136.61
2019-01-14T20:42:51.203Z,100139.13
2019-01-14T20:45:20.808Z,100140.44
2019-01-14T20:47:50.344Z,100137.16
2019-01-14T20:50:21.018Z,100144.73
2019-01-14T20:52:50.553Z,100138.98
2019-01-14T20:55:20.226Z,100147.30
2019-01-14T20:57:49.791Z,100144.63
2019-01-14T21:00:23.198Z,100138.06
2019-01-14T21:02:53.069Z,100146.11
2019-01-14T21:06:35.400Z,100146.84
2019-01-14T21:09:07.054Z,100148.06
2019-01-14T21:11:36.621Z,100150.02
2019-01-14T21:14:06.296Z,100157.23
2019-01-14T21:16:35.853Z,100152.03
2019-01-14T21:19:05.454Z,100156.66
2019-01-14T21:21:35.012Z,100152.54
2019-01-14T21:24:04.669Z,100153.15
2019-01-14T21:26:34.214Z,100153.32
2019-01-14T21:29:03.751Z,100152.16
2019-01-14T21:31:33.398Z,100159.00
2019-01-14T21:34:02.907Z,100151.77
2019-01-14T21:36:32.442Z,100160.15
2019-01-14T21:39:01.999Z,100162.48
2019-01-14T21:41:31.681Z,100173.23
2019-01-14T21:44:01.267Z,100175.63
2019-01-14T21:46:30.827Z,100173.33
2019-01-14T21:49:00.402Z,100173.47
2019-01-14T21:51:30.000Z,100166.70
2019-01-14T21:54:00.415Z,100168.86
2019-01-14T21:56:29.958Z,100168.80
2019-01-14T21:58:59.543Z,100175.02
2019-01-14T22:01:29.075Z,100177.12
2019-01-14T22:03:58.808Z,100175.63
2019-01-14T22:06:28.360Z,100175.05
2019-01-14T22:08:57.899Z,100177.22
2019-01-14T22:11:27.504Z,100176.23
2019-01-14T22:13:57.099Z,100186.99
2019-01-14T22:16:26.702Z,100167.03
2019-01-14T22:18:56.276Z,100163.45
2019-01-14T22:21:25.829Z,100178.93
2019-01-14T22:23:55.449Z,100160.95
2019-01-14T22:26:25.003Z,100161.22
2019-01-14T22:28:54.559Z,100167.27
2019-01-14T22:31:24.115Z,100159.55
2019-01-14T22:33:53.829Z,100162.41
2019-01-14T22:36:23.454Z,100174.62
2019-01-14T22:38:53.044Z,100171.73
2019-01-14T22:41:22.744Z,100180.02
2019-01-14T22:43:52.257Z,100168.81
2019-01-14T22:46:21.794Z,100178.34
2019-01-14T22:48:51.538Z,100180.50
2019-01-14T22:51:21.077Z,100182.73
2019-01-14T22:53:50.697Z,100184.50
2019-01-14T22:56:20.378Z,100178.27
2019-01-14T22:58:49.934Z,100175.09
2019-01-14T23:01:23.653Z,100186.71
2019-01-14T23:03:53.348Z,100178.73
2019-01-14T23:06:22.907Z,100173.08
2019-01-14T23:08:52.450Z,100179.61
2019-01-14T23:11:22.022Z,100179.22
2019-01-14T23:13:51.616Z,100171.90
2019-01-14T23:16:21.153Z,100186.84
2019-01-14T23:18:50.925Z,100174.24
2019-01-14T23:21:20.472Z,100171.41
2019-01-14T23:23:50.012Z,100165.92
2019-01-14T23:26:19.581Z,100168.39
2019-01-14T23:28:49.145Z,100175.70
2019-01-14T23:31:18.657Z,100180.25
2019-01-14T23:33:48.227Z,100172.27
2019-01-14T23:36:17.756Z,100184.06
2019-01-14T23:38:47.292Z,100170.34
2019-01-14T23:41:17.306Z,100176.06
2019-01-14T23:43:47.077Z,100172.82
2019-01-14T23:46:16.638Z,100181.88
2019-01-14T23:48:46.530Z,100170.30
2019-01-14T23:51:16.097Z,100172.42
2019-01-14T23:53:45.651Z,100168.86
2019-01-14T23:56:15.486Z,100173.10
2019-01-14T23:58:45.016Z,100172.04
